createdAt,value
2023-04-25T00:01:52.365Z,10.24
2023-04-25T00:04:19.298Z,10.22
2023-04-25T00:06:45.963Z,10.20
2023-04-25T00:09:12.539Z,10.17
2023-04-25T00:11:39.044Z,10.14
2023-04-25T00:14:05.627Z,10.11
2023-04-25T00:16:34.739Z,10.09
2023-04-25T00:19:02.550Z,10.05
2023-04-25T00:21:29.268Z,10.02
2023-04-25T00:23:56.458Z,9.99
2023-04-25T00:26:22.936Z,9.97
2023-04-25T00:28:49.443Z,9.96
2023-04-25T00:31:15.889Z,9.94
2023-04-25T00:33:42.314Z,9.94
2023-04-25T00:36:08.747Z,9.93
2023-04-25T00:38:35.592Z,9.93
2023-04-25T00:41:01.938Z,9.93
2023-04-25T00:43:33.231Z,9.92
2023-04-25T00:46:01.352Z,9.91
2023-04-25T00:48:28.084Z,9.89
2023-04-25T00:50:56.326Z,9.87
2023-04-25T00:53:23.233Z,9.86
2023-04-25T00:55:53.769Z,9.84
2023-04-25T00:58:22.302Z,9.83
2023-04-25T01:00:51.154Z,9.83
2023-04-25T01:03:20.697Z,9.82
2023-04-25T01:05:47.934Z,9.82
2023-04-25T01:08:14.921Z,9.82
2023-04-25T01:10:41.338Z,9.83
2023-04-25T01:13:08.130Z,9.83
2023-04-25T01:15:36.337Z,9.85
2023-04-25T01:18:03.724Z,9.86
2023-04-25T01:20:30.400Z,9.87
2023-04-25T01:22:56.838Z,9.85
2023-04-25T01:25:24.919Z,9.86
2023-04-25T01:27:51.824Z,9.85
2023-04-25T01:30:18.735Z,9.85
2023-04-25T01:32:45.511Z,9.82
2023-04-25T01:35:12.939Z,9.80
2023-04-25T01:37:41.026Z,9.78
2023-04-25T01:40:08.790Z,9.76
2023-04-25T01:42:36.741Z,9.76
2023-04-25T01:45:03.580Z,9.74
2023-04-25T01:47:31.817Z,9.73
2023-04-25T01:49:59.437Z,9.70
2023-04-25T01:52:25.797Z,9.65
2023-04-25T01:54:54.286Z,9.60
2023-04-25T01:57:20.864Z,9.56
2023-04-25T01:59:47.430Z,9.52
2023-04-25T02:02:13.840Z,9.49
2023-04-25T02:04:40.378Z,9.45
2023-04-25T02:07:06.863Z,9.41
2023-04-25T02:09:33.248Z,9.37
2023-04-25T02:11:59.560Z,9.34
2023-04-25T02:14:26.024Z,9.31
2023-04-25T02:16:53.195Z,9.26
2023-04-25T02:19:19.727Z,9.23
2023-04-25T02:21:46.521Z,9.19
2023-04-25T02:24:12.957Z,9.16
2023-04-25T02:26:39.304Z,9.12
2023-04-25T02:29:05.755Z,9.10
2023-04-25T02:31:32.281Z,9.08
2023-04-25T02:33:58.818Z,9.06
2023-04-25T02:36:25.187Z,9.04
2023-04-25T02:38:51.808Z,9.03
2023-04-25T02:41:18.375Z,9.01
2023-04-25T02:43:44.695Z,9.01
2023-04-25T02:46:11.232Z,8.99
2023-04-25T02:48:37.600Z,8.99
2023-04-25T02:51:04.005Z,8.98
2023-04-25T02:53:30.524Z,8.96
2023-04-25T02:55:59.290Z,8.95
2023-04-25T02:58:26.089Z,8.94
2023-04-25T03:00:52.606Z,8.94
2023-04-25T03:03:19.275Z,8.93
2023-04-25T03:05:47.706Z,8.92
2023-04-25T03:08:14.143Z,8.92
2023-04-25T03:10:40.636Z,8.91
2023-04-25T03:13:06.949Z,8.91
2023-04-25T03:15:33.376Z,8.90
2023-04-25T03:17:59.789Z,8.90
2023-04-25T03:20:26.133Z,8.91
2023-04-25T03:22:52.630Z,8.89
2023-04-25T03:25:19.023Z,8.89
2023-04-25T03:27:45.370Z,8.89
2023-04-25T03:30:12.109Z,8.88
2023-04-25T03:32:38.549Z,8.88
2023-04-25T03:35:06.249Z,8.86
2023-04-25T03:37:32.606Z,8.85
2023-04-25T03:39:58.926Z,8.84
2023-04-25T03:42:25.524Z,8.81
2023-04-25T03:44:52.633Z,8.80
2023-04-25T03:47:19.011Z,8.79
2023-04-25T03:49:45.559Z,8.79
2023-04-25T03:52:11.929Z,8.77
2023-04-25T03:54:38.334Z,8.78
2023-04-25T03:57:04.689Z,8.77
2023-04-25T03:59:31.397Z,8.77
2023-04-25T04:01:58.133Z,8.76
2023-04-25T04:04:24.677Z,8.73
2023-04-25T04:06:51.814Z,8.72
2023-04-25T04:09:18.785Z,8.71
2023-04-25T04:11:45.234Z,8.70
2023-04-25T04:14:11.732Z,8.70
2023-04-25T04:16:38.254Z,8.69
2023-04-25T04:19:04.921Z,8.68
2023-04-25T04:21:31.282Z,8.68
2023-04-25T04:23:58.777Z,8.68
2023-04-25T04:26:25.178Z,8.67
2023-04-25T04:28:52.710Z,8.66
2023-04-25T04:31:20.531Z,8.66
2023-04-25T04:33:47.394Z,8.64
2023-04-25T04:36:13.933Z,8.63
2023-04-25T04:38:42.167Z,8.62
2023-04-25T04:41:08.909Z,8.61
2023-04-25T04:43:35.279Z,8.61
2023-04-25T04:46:02.182Z,8.60
2023-04-25T04:48:29.137Z,8.59
2023-04-25T04:50:55.655Z,8.59
2023-04-25T04:53:22.111Z,8.58
2023-04-25T04:55:48.504Z,8.56
2023-04-25T04:58:15.638Z,8.56
2023-04-25T05:00:43.042Z,8.57
2023-04-25T05:03:09.507Z,8.57
2023-04-25T05:05:36.160Z,8.57
2023-04-25T05:08:02.787Z,8.57
2023-04-25T05:10:29.158Z,8.59
2023-04-25T05:12:55.616Z,8.59
2023-04-25T05:15:21.956Z,8.61
2023-04-25T05:17:48.358Z,8.61
2023-04-25T05:20:15.098Z,8.62
2023-04-25T05:22:42.763Z,8.63
2023-04-25T05:25:10.380Z,8.65
2023-04-25T05:27:36.721Z,8.66
2023-04-25T05:30:03.454Z,8.69
2023-04-25T05:32:29.925Z,8.72
2023-04-25T05:34:56.562Z,8.75
2023-04-25T05:37:22.975Z,8.77
2023-04-25T05:39:49.290Z,8.79
2023-04-25T05:42:15.638Z,8.82
2023-04-25T05:44:42.179Z,8.85
2023-04-25T05:47:08.498Z,8.89
2023-04-25T05:49:35.499Z,8.93
2023-04-25T05:52:01.844Z,8.96
2023-04-25T05:54:28.221Z,8.99
2023-04-25T05:56:54.573Z,9.05
2023-04-25T05:59:21.148Z,9.06
2023-04-25T06:01:48.109Z,9.10
2023-04-25T06:04:14.793Z,9.13
2023-04-25T06:06:41.280Z,9.16
2023-04-25T06:09:07.825Z,9.20
2023-04-25T06:11:34.199Z,9.23
2023-04-25T06:14:00.557Z,9.26
2023-04-25T06:16:27.179Z,9.28
2023-04-25T06:18:53.793Z,9.31
2023-04-25T06:21:20.248Z,9.34
2023-04-25T06:23:46.708Z,9.36
2023-04-25T06:26:13.205Z,9.39
2023-04-25T06:28:39.674Z,9.42
2023-04-25T06:31:06.023Z,9.47
2023-04-25T06:33:32.436Z,9.53
2023-04-25T06:35:58.877Z,9.59
2023-04-25T06:38:25.221Z,9.64
2023-04-25T06:40:52.211Z,9.71
2023-04-25T06:43:18.583Z,9.77
2023-04-25T06:45:48.231Z,9.84
2023-04-25T06:48:14.867Z,9.92
2023-04-25T06:50:41.200Z,9.99
2023-04-25T06:53:09.790Z,10.06
2023-04-25T06:55:36.359Z,10.11
2023-04-25T06:58:02.687Z,10.18
2023-04-25T07:00:29.790Z,10.23
2023-04-25T07:02:56.268Z,10.28
2023-04-25T07:05:22.919Z,10.33
2023-04-25T07:07:49.421Z,10.38
2023-04-25T07:10:16.226Z,10.44
2023-04-25T07:12:42.576Z,10.50
2023-04-25T07:15:11.026Z,10.57
2023-04-25T07:17:37.480Z,10.63
2023-04-25T07:20:04.874Z,10.68
2023-04-25T07:22:31.211Z,10.75
2023-04-25T07:24:57.539Z,10.85
2023-04-25T07:27:23.982Z,10.92
2023-04-25T07:29:50.332Z,10.97
2023-04-25T07:32:16.702Z,11.02
2023-04-25T07:34:43.196Z,11.06
2023-04-25T07:37:09.517Z,11.08
2023-04-25T07:39:36.030Z,11.12
2023-04-25T07:42:03.516Z,11.13
2023-04-25T07:44:31.322Z,11.14
2023-04-25T07:46:57.687Z,11.17
2023-04-25T07:49:24.154Z,11.17
2023-04-25T07:51:50.858Z,11.17
2023-04-25T07:54:18.070Z,11.16
2023-04-25T07:56:52.269Z,11.11
2023-04-25T07:59:19.553Z,11.07
2023-04-25T08:01:45.975Z,10.97
2023-04-25T08:04:12.665Z,10.90
2023-04-25T08:06:39.382Z,10.84
2023-04-25T08:09:05.923Z,10.78
2023-04-25T08:11:32.348Z,10.76
2023-04-25T08:13:58.884Z,10.75
2023-04-25T08:16:25.435Z,10.78
2023-04-25T08:18:52.324Z,10.81
2023-04-25T08:21:19.091Z,10.84
2023-04-25T08:23:45.856Z,10.89
2023-04-25T08:26:12.382Z,10.95
2023-04-25T08:28:39.251Z,11.04
2023-04-25T08:31:05.841Z,11.13
2023-04-25T08:33:33.703Z,11.23
2023-04-25T08:36:00.174Z,11.34
2023-04-25T08:38:26.777Z,11.46
2023-04-25T08:40:53.221Z,11.57
2023-04-25T08:43:20.985Z,11.68
2023-04-25T08:45:48.257Z,11.79
2023-04-25T08:48:16.808Z,11.91
2023-04-25T08:50:54.298Z,12.01
2023-04-25T08:53:28.454Z,12.07
2023-04-25T08:55:57.143Z,12.09
2023-04-25T08:58:24.436Z,12.09
2023-04-25T09:00:52.997Z,12.09
2023-04-25T09:03:19.920Z,12.06
2023-04-25T09:05:46.940Z,12.01
2023-04-25T09:08:13.782Z,11.96
2023-04-25T09:10:41.449Z,11.91
2023-04-25T09:13:07.901Z,11.88
2023-04-25T09:15:34.352Z,11.84
2023-04-25T09:18:01.180Z,11.86
2023-04-25T09:20:27.756Z,11.89
2023-04-25T09:23:07.746Z,11.90
2023-04-25T09:25:41.504Z,11.92
2023-04-25T09:28:07.911Z,11.90
2023-04-25T09:30:37.508Z,11.89
2023-04-25T09:33:08.617Z,11.90
2023-04-25T09:35:41.027Z,11.95
2023-04-25T09:38:13.140Z,12.06
2023-04-25T09:40:46.446Z,12.20
2023-04-25T09:43:23.649Z,12.38
2023-04-25T09:45:52.668Z,12.52
2023-04-25T09:48:21.060Z,12.65
2023-04-25T09:51:05.108Z,12.76
2023-04-25T09:53:33.013Z,12.84
2023-04-25T09:56:03.940Z,12.90
2023-04-25T09:58:32.378Z,12.96
2023-04-25T10:01:01.990Z,13.04
2023-04-25T10:03:31.833Z,13.14
2023-04-25T10:06:01.284Z,13.22
2023-04-25T10:08:34.149Z,13.30
2023-04-25T10:11:03.650Z,13.37
2023-04-25T10:13:31.874Z,13.41
2023-04-25T10:16:05.405Z,13.41
2023-04-25T10:18:33.472Z,13.38
2023-04-25T10:21:02.749Z,13.31
2023-04-25T10:23:31.407Z,13.26
2023-04-25T10:25:58.572Z,13.21
2023-04-25T10:28:25.258Z,13.20
2023-04-25T10:31:04.947Z,13.22
2023-04-25T10:33:39.262Z,13.28
2023-04-25T10:36:13.713Z,13.33
2023-04-25T10:38:40.640Z,13.35
2023-04-25T10:41:11.732Z,13.40
2023-04-25T10:43:45.467Z,13.44
2023-04-25T10:46:19.259Z,13.47
2023-04-25T10:48:59.099Z,13.53
2023-04-25T10:51:51.678Z,13.59
2023-04-25T10:54:24.077Z,13.68
2023-04-25T10:56:51.785Z,13.73
2023-04-25T10:59:19.757Z,13.79
2023-04-25T11:01:56.775Z,13.88
2023-04-25T11:04:26.850Z,13.95
2023-04-25T11:07:06.548Z,14.01
2023-04-25T11:09:35.957Z,14.00
2023-04-25T11:12:02.476Z,13.91
2023-04-25T11:14:28.972Z,13.80
2023-04-25T11:17:00.748Z,13.67
2023-04-25T11:19:28.742Z,13.55
2023-04-25T11:21:59.810Z,13.45
2023-04-25T11:24:28.360Z,13.37
2023-04-25T11:26:55.103Z,13.33
2023-04-25T11:29:27.343Z,13.35
2023-04-25T11:31:56.859Z,13.37
2023-04-25T11:34:23.276Z,13.39
2023-04-25T11:36:49.711Z,13.42
2023-04-25T11:39:16.161Z,13.45
2023-04-25T11:41:45.842Z,13.47
2023-04-25T11:44:12.835Z,13.47
2023-04-25T11:46:39.249Z,13.44
2023-04-25T11:49:05.892Z,13.42
2023-04-25T11:51:46.077Z,13.43
2023-04-25T11:54:13.095Z,13.46
2023-04-25T11:56:43.795Z,13.54
2023-04-25T11:59:10.570Z,13.66
2023-04-25T12:01:39.476Z,13.83
2023-04-25T12:04:14.535Z,14.01
2023-04-25T12:06:43.926Z,14.14
2023-04-25T12:09:14.198Z,14.23
2023-04-25T12:11:47.112Z,14.25
2023-04-25T12:14:21.853Z,14.18
2023-04-25T12:16:49.515Z,13.95
2023-04-25T12:19:21.142Z,13.63
2023-04-25T12:24:24.350Z,12.91
2023-04-25T12:26:59.910Z,12.59
2023-04-25T12:29:31.775Z,12.32
2023-04-25T12:32:04.826Z,12.10
2023-04-25T12:34:33.293Z,11.94
2023-04-25T12:36:59.771Z,11.81
2023-04-25T12:39:26.803Z,11.72
2023-04-25T12:41:57.127Z,11.67
2023-04-25T12:44:23.532Z,11.63
2023-04-25T12:46:50.992Z,11.63
2023-04-25T12:49:19.167Z,11.66
2023-04-25T12:51:46.016Z,11.75
2023-04-25T12:54:12.659Z,11.86
2023-04-25T12:56:39.352Z,12.01
2023-04-25T12:59:05.912Z,12.20
2023-04-25T13:01:34.697Z,12.40
2023-04-25T13:04:02.896Z,12.59
2023-04-25T13:06:31.102Z,12.72
2023-04-25T13:08:57.538Z,12.84
2023-04-25T13:11:23.881Z,12.86
2023-04-25T13:13:50.610Z,12.84
2023-04-25T13:16:17.490Z,12.79
2023-04-25T13:18:43.995Z,12.71
2023-04-25T13:21:12.403Z,12.65
2023-04-25T13:23:39.158Z,12.60
2023-04-25T13:26:05.805Z,12.57
2023-04-25T13:28:32.289Z,12.56
2023-04-25T13:30:59.004Z,12.53
2023-04-25T13:33:25.565Z,12.52
2023-04-25T13:35:54.705Z,12.55
2023-04-25T13:38:22.431Z,12.56
2023-04-25T13:40:49.596Z,12.54
2023-04-25T13:43:16.127Z,12.51
2023-04-25T13:45:42.519Z,12.47
2023-04-25T13:48:09.019Z,12.44
2023-04-25T13:50:36.777Z,12.46
2023-04-25T13:53:03.187Z,12.48
2023-04-25T13:55:29.624Z,12.56
2023-04-25T13:57:56.041Z,12.65
2023-04-25T14:00:22.585Z,12.76
2023-04-25T14:02:50.741Z,12.88
2023-04-25T14:05:17.502Z,13.04
2023-04-25T14:07:43.953Z,13.20
2023-04-25T14:10:10.579Z,13.37
2023-04-25T14:12:37.053Z,13.47
2023-04-25T14:15:04.399Z,13.49
2023-04-25T14:17:30.896Z,13.43
2023-04-25T14:19:57.323Z,13.25
2023-04-25T14:22:23.873Z,13.02
2023-04-25T14:24:50.302Z,12.77
2023-04-25T14:27:16.730Z,12.53
2023-04-25T14:29:43.953Z,12.26
2023-04-25T14:32:11.260Z,12.01
2023-04-25T14:34:37.615Z,11.80
2023-04-25T14:37:04.239Z,11.61
2023-04-25T14:39:30.574Z,11.45
2023-04-25T14:41:57.008Z,11.36
2023-04-25T14:44:23.428Z,11.32
2023-04-25T14:46:52.524Z,11.34
2023-04-25T14:49:19.149Z,11.39
2023-04-25T14:51:45.599Z,11.47
2023-04-25T14:54:12.966Z,11.54
2023-04-25T14:56:39.408Z,11.59
2023-04-25T14:59:05.733Z,11.65
2023-04-25T15:01:32.723Z,11.69
2023-04-25T15:03:59.768Z,11.72
2023-04-25T15:06:27.998Z,11.76
2023-04-25T15:08:54.437Z,11.78
2023-04-25T15:11:21.507Z,11.81
2023-04-25T15:13:47.938Z,11.83
2023-04-25T15:16:14.466Z,11.83
2023-04-25T15:18:41.638Z,11.85
2023-04-25T15:21:08.251Z,11.87
2023-04-25T15:23:34.766Z,11.91
2023-04-25T15:26:01.123Z,11.96
2023-04-25T15:28:27.553Z,12.02
2023-04-25T15:30:54.394Z,12.10
2023-04-25T15:33:20.829Z,12.19
2023-04-25T15:35:47.396Z,12.27
2023-04-25T15:38:13.815Z,12.35
2023-04-25T15:40:41.035Z,12.41
2023-04-25T15:43:08.130Z,12.40
2023-04-25T15:58:00.701Z,11.07
2023-04-25T16:00:27.424Z,11.17
2023-04-25T16:02:54.038Z,11.23
2023-04-25T16:05:20.848Z,11.26
2023-04-25T16:07:47.832Z,11.27
2023-04-25T16:10:19.759Z,11.27
2023-04-25T16:12:48.290Z,11.28
2023-04-25T16:15:14.716Z,11.28
2023-04-25T16:17:41.343Z,11.32
2023-04-25T16:20:12.459Z,11.38
2023-04-25T16:22:40.232Z,11.44
2023-04-25T16:25:07.996Z,11.50
2023-04-25T16:27:35.459Z,11.57
2023-04-25T16:30:02.331Z,11.60
2023-04-25T16:32:28.804Z,11.65
2023-04-25T16:34:56.993Z,11.69
2023-04-25T16:37:25.453Z,11.76
2023-04-25T16:39:51.773Z,11.82
2023-04-25T16:42:18.212Z,11.89
2023-04-25T16:44:44.693Z,11.95
2023-04-25T16:47:12.206Z,11.99
2023-04-25T16:49:41.078Z,11.96
2023-04-25T16:52:07.426Z,11.91
2023-04-25T16:54:33.802Z,11.81
2023-04-25T16:57:01.308Z,11.71
2023-04-25T16:59:27.728Z,11.59
2023-04-25T17:01:54.105Z,11.48
2023-04-25T17:04:20.511Z,11.36
2023-04-25T17:06:46.955Z,11.23
2023-04-25T17:09:13.282Z,11.03
2023-04-25T17:11:39.824Z,10.80
2023-04-25T17:14:06.389Z,10.50
2023-04-25T17:16:37.186Z,10.18
2023-04-25T17:19:05.491Z,9.88
2023-04-25T17:21:32.175Z,9.59
2023-04-25T17:23:59.213Z,9.40
2023-04-25T17:26:26.510Z,9.25
2023-04-25T17:28:54.013Z,9.14
2023-04-25T17:31:22.952Z,9.10
2023-04-25T17:33:49.851Z,9.13
2023-04-25T17:36:16.269Z,9.27
2023-04-25T17:38:42.608Z,9.45
2023-04-25T17:41:10.559Z,9.72
2023-04-25T17:43:36.965Z,9.93
2023-04-25T17:46:03.424Z,10.15
2023-04-25T17:48:31.584Z,10.35
2023-04-25T17:50:58.485Z,10.54
2023-04-25T17:53:25.319Z,10.73
2023-04-25T17:55:51.843Z,10.89
2023-04-25T17:58:18.289Z,11.01
2023-04-25T18:00:44.681Z,11.05
2023-04-25T18:03:11.299Z,11.05
2023-04-25T18:05:37.777Z,11.02
2023-04-25T18:08:05.918Z,10.96
2023-04-25T18:10:33.874Z,10.87
2023-04-25T18:13:00.469Z,10.78
2023-04-25T18:15:27.017Z,10.70
2023-04-25T18:17:53.495Z,10.64
2023-04-25T18:20:20.584Z,10.60
2023-04-25T18:22:47.042Z,10.55
2023-04-25T18:25:13.965Z,10.50
2023-04-25T18:27:41.237Z,10.45
2023-04-25T18:30:10.575Z,10.41
2023-04-25T18:32:37.773Z,10.32
2023-04-25T18:35:04.952Z,10.20
2023-04-25T18:37:31.345Z,10.04
2023-04-25T18:39:58.471Z,9.86
2023-04-25T18:42:24.995Z,9.69
2023-04-25T18:44:51.600Z,9.52
2023-04-25T18:47:18.257Z,9.39
2023-04-25T18:49:45.253Z,9.32
2023-04-25T18:52:12.770Z,9.26
2023-04-25T18:54:39.250Z,9.22
2023-04-25T18:57:06.420Z,9.20
2023-04-25T18:59:33.565Z,9.17
2023-04-25T19:02:05.297Z,9.16
2023-04-25T19:04:32.263Z,9.15
2023-04-25T19:06:58.988Z,9.15
2023-04-25T19:09:25.579Z,9.12
2023-04-25T19:11:52.095Z,9.09
2023-04-25T19:14:18.579Z,9.07
2023-04-25T19:16:45.015Z,9.04
2023-04-25T19:19:11.395Z,9.02
2023-04-25T19:21:37.861Z,8.99
2023-04-25T19:24:05.211Z,8.97
2023-04-25T19:26:32.226Z,8.94
2023-04-25T19:29:13.450Z,8.93
2023-04-25T19:31:41.335Z,8.90
2023-04-25T19:34:09.031Z,8.88
2023-04-25T19:36:38.378Z,8.86
2023-04-25T19:39:07.084Z,8.83
2023-04-25T19:41:38.215Z,8.79
2023-04-25T19:44:07.267Z,8.77
2023-04-25T19:46:35.121Z,8.74
2023-04-25T19:49:01.891Z,8.71
2023-04-25T19:51:28.770Z,8.70
2023-04-25T19:53:55.566Z,8.69
2023-04-25T19:56:22.764Z,8.69
2023-04-25T19:58:49.456Z,8.68
2023-04-25T20:01:17.035Z,8.67
2023-04-25T20:03:43.498Z,8.67
2023-04-25T20:06:11.398Z,8.67
2023-04-25T20:08:37.803Z,8.67
2023-04-25T20:11:04.242Z,8.65
2023-04-25T20:13:31.582Z,8.66
2023-04-25T20:16:00.033Z,8.64
2023-04-25T20:18:29.127Z,8.63
2023-04-25T20:20:55.543Z,8.60
2023-04-25T20:23:22.103Z,8.59
2023-04-25T20:25:48.509Z,8.56
2023-04-25T20:28:14.977Z,8.53
2023-04-25T20:30:41.733Z,8.50
2023-04-25T20:33:09.119Z,8.46
2023-04-25T20:35:35.530Z,8.42
2023-04-25T20:38:01.895Z,8.36
2023-04-25T20:40:28.268Z,8.31
2023-04-25T20:42:56.172Z,8.28
2023-04-25T20:45:24.295Z,8.22
2023-04-25T20:47:50.751Z,8.16
2023-04-25T20:50:17.242Z,8.11
2023-04-25T20:52:44.604Z,8.06
2023-04-25T20:55:11.910Z,8.00
2023-04-25T20:57:38.314Z,7.95
2023-04-25T21:00:25.321Z,7.90
2023-04-25T21:02:52.698Z,7.85
2023-04-25T21:05:22.077Z,7.80
2023-04-25T21:07:49.922Z,7.75
2023-04-25T21:10:17.154Z,7.70
2023-04-25T21:12:50.140Z,7.65
2023-04-25T21:15:21.184Z,7.60
2023-04-25T21:17:48.564Z,7.57
2023-04-25T21:20:17.759Z,7.51
2023-04-25T21:22:53.774Z,7.47
2023-04-25T21:25:31.009Z,7.44
2023-04-25T21:27:58.719Z,7.39
2023-04-25T21:30:26.064Z,7.36
2023-04-25T21:32:53.152Z,7.33
2023-04-25T21:35:21.202Z,7.28
2023-04-25T21:37:47.708Z,7.25
2023-04-25T21:40:14.683Z,7.20
2023-04-25T21:42:42.262Z,7.16
2023-04-25T21:45:09.026Z,7.13
2023-04-25T21:47:35.852Z,7.09
2023-04-25T21:50:02.256Z,7.04
2023-04-25T21:52:28.760Z,6.99
2023-04-25T21:54:55.775Z,6.95
2023-04-25T21:57:22.194Z,6.91
2023-04-25T21:59:48.595Z,6.87
2023-04-25T22:02:15.199Z,6.84
2023-04-25T22:04:47.137Z,6.79
2023-04-25T22:07:14.326Z,6.75
2023-04-25T22:09:53.710Z,6.71
2023-04-25T22:12:21.150Z,6.67
2023-04-25T22:14:47.681Z,6.62
2023-04-25T22:17:14.018Z,6.59
2023-04-25T22:19:40.407Z,6.54
2023-04-25T22:22:06.750Z,6.52
2023-04-25T22:24:33.718Z,6.48
2023-04-25T22:27:00.380Z,6.45
2023-04-25T22:29:26.698Z,6.43
2023-04-25T22:31:53.108Z,6.40
2023-04-25T22:34:19.865Z,6.37
2023-04-25T22:36:46.201Z,6.33
2023-04-25T22:39:15.042Z,6.31
2023-04-25T22:41:41.905Z,6.26
2023-04-25T22:44:08.218Z,6.23
2023-04-25T22:46:34.786Z,6.21
2023-04-25T22:49:01.238Z,6.17
2023-04-25T22:51:27.548Z,6.14
2023-04-25T22:53:53.956Z,6.10
2023-04-25T22:56:20.319Z,6.07
2023-04-25T22:58:46.709Z,6.05
2023-04-25T23:01:13.290Z,6.02
2023-04-25T23:03:40.210Z,5.97
2023-04-25T23:06:06.831Z,5.93
2023-04-25T23:08:33.290Z,5.88
2023-04-25T23:10:59.624Z,5.84
2023-04-25T23:13:26.364Z,5.81
2023-04-25T23:15:53.075Z,5.78
2023-04-25T23:18:19.428Z,5.73
2023-04-25T23:20:46.835Z,5.70
2023-04-25T23:23:13.175Z,5.67
2023-04-25T23:25:42.926Z,5.64
2023-04-25T23:28:09.276Z,5.61
2023-04-25T23:30:35.627Z,5.59
2023-04-25T23:33:02.022Z,5.56
2023-04-25T23:35:28.715Z,5.53
2023-04-25T23:37:55.541Z,5.50
2023-04-25T23:40:22.180Z,5.47
2023-04-25T23:42:48.548Z,5.43
2023-04-25T23:45:16.377Z,5.41
2023-04-25T23:47:43.121Z,5.38
2023-04-25T23:50:10.095Z,5.35
2023-04-25T23:52:36.476Z,5.33
2023-04-25T23:55:05.279Z,5.30
2023-04-25T23:57:32.296Z,5.27
2023-04-25T23:59:58.884Z,5.24
